Time;durP1;ratioP1;P1;durP2;ratioP2;P2;SDS_P1;SDS_P2;PMS_P1;PMS_P2;Temp;Humidity;BMP_temperature;BMP_pressure;BME280_temperature;BME280_humidity;BME280_pressure;Samples;Min_cycle;Max_cycle;Signal;HPM_P1;HPM_P2
2021/09/05 00:00:14;;;;;;;19.55;9.93;;;15.60;92.40;;;;;;5077166;28;20024;-68
2021/09/05 00:02:40;;;;;;;22.95;10.45;;;15.50;92.50;;;;;;5094634;28;20052;-68
2021/09/05 00:05:06;;;;;;;16.60;10.20;;;15.50;93.00;;;;;;5095206;28;20089;-67
2021/09/05 00:07:32;;;;;;;15.20;9.88;;;15.50;93.00;;;;;;5095150;28;20338;-67
2021/09/05 00:09:58;;;;;;;22.50;12.40;;;15.40;93.20;;;;;;5095167;28;20086;-68
2021/09/05 00:12:23;;;;;;;18.88;10.32;;;15.40;93.10;;;;;;5095234;28;20035;-67
2021/09/05 00:14:49;;;;;;;24.20;11.55;;;15.40;93.30;;;;;;5094965;28;20460;-69
2021/09/05 00:17:15;;;;;;;18.23;11.70;;;15.40;93.30;;;;;;5076751;28;20786;-68
2021/09/05 00:19:41;;;;;;;16.05;10.18;;;15.40;93.60;;;;;;5094924;28;20034;-69
2021/09/05 00:22:07;;;;;;;19.48;10.27;;;15.40;93.70;;;;;;5094874;28;20024;-69
2021/09/05 00:24:33;;;;;;;22.58;10.63;;;15.60;93.70;;;;;;5094806;28;20415;-69
2021/09/05 00:26:59;;;;;;;17.50;9.85;;;15.50;93.80;;;;;;5076494;28;20114;-69
2021/09/05 00:29:25;;;;;;;18.27;9.68;;;15.50;93.90;;;;;;5076410;28;20031;-69
2021/09/05 00:31:52;;;;;;;13.93;9.30;;;15.40;94.10;;;;;;5076508;28;20530;-68
2021/09/05 00:34:18;;;;;;;14.93;9.27;;;15.40;94.10;;;;;;5076295;28;20043;-68
2021/09/05 00:36:44;;;;;;;20.67;10.40;;;15.30;94.10;;;;;;5094559;28;20043;-68
2021/09/05 00:39:10;;;;;;;16.42;10.48;;;15.30;94.50;;;;;;5094327;28;20024;-68
2021/09/05 00:41:36;;;;;;;17.92;10.75;;;15.20;94.60;;;;;;5094460;28;20028;-69
2021/09/05 00:44:07;;;;;;;17.45;9.80;;;15.30;94.30;;;;;;5076243;28;20024;-69
2021/09/05 00:46:35;;;;;;;20.35;10.20;;;15.30;94.40;;;;;;5094414;28;20028;-68
2021/09/05 00:49:02;;;;;;;17.50;10.23;;;15.20;94.60;;;;;;5075893;28;20028;-68
2021/09/05 00:51:31;;;;;;;17.40;11.15;;;15.20;95.00;;;;;;5076013;28;20059;-69
2021/09/05 00:53:59;;;;;;;20.33;12.02;;;15.10;95.20;;;;;;5075926;28;20063;-70
2021/09/05 00:56:30;;;;;;;21.92;12.57;;;15.10;95.40;;;;;;5094198;28;20031;-69
2021/09/05 00:58:59;;;;;;;13.40;8.77;;;15.10;95.60;;;;;;5094210;28;20099;-68
2021/09/05 01:01:25;;;;;;;11.65;8.52;;;15.00;95.00;;;;;;5093757;28;20637;-69
2021/09/05 01:03:50;;;;;;;20.40;9.85;;;14.90;95.10;;;;;;5094010;28;20034;-68
2021/09/05 01:06:16;;;;;;;15.68;8.93;;;14.90;95.20;;;;;;5075757;28;20031;-68
2021/09/05 01:08:43;;;;;;;12.80;9.25;;;14.80;95.40;;;;;;5075655;28;20118;-70
2021/09/05 01:11:08;;;;;;;16.23;9.98;;;14.80;95.70;;;;;;5094019;28;20063;-68
2021/09/05 01:13:34;;;;;;;21.15;12.20;;;14.90;95.80;;;;;;5093771;28;20086;-68
2021/09/05 01:16:00;;;;;;;28.02;12.10;;;14.80;96.20;;;;;;5093893;28;20036;-67
2021/09/05 01:18:26;;;;;;;21.63;11.40;;;14.80;96.60;;;;;;5093533;28;20028;-69
2021/09/05 01:20:52;;;;;;;20.10;10.98;;;14.90;96.30;;;;;;5093840;28;20024;-69
2021/09/05 01:23:18;;;;;;;23.45;10.95;;;14.80;96.30;;;;;;5093409;28;20032;-68
2021/09/05 01:25:44;;;;;;;19.15;11.10;;;14.70;96.00;;;;;;5093943;28;20020;-66
2021/09/05 01:28:11;;;;;;;18.30;9.70;;;14.70;96.30;;;;;;5075455;28;20030;-66
2021/09/05 01:30:36;;;;;;;17.67;10.50;;;14.60;96.40;;;;;;5093395;28;20066;-65
2021/09/05 01:33:02;;;;;;;17.05;10.07;;;14.60;96.90;;;;;;5093493;28;20421;-69
2021/09/05 01:35:28;;;;;;;19.58;10.55;;;14.70;96.70;;;;;;5093258;28;20089;-68
2021/09/05 01:37:54;;;;;;;16.75;11.02;;;14.70;97.10;;;;;;5093452;28;20031;-68
2021/09/05 01:40:21;;;;;;;17.15;10.50;;;14.60;97.50;;;;;;5093228;28;20020;-68
2021/09/05 01:42:46;;;;;;;14.63;10.80;;;14.70;97.80;;;;;;5074696;28;20469;-69
2021/09/05 01:45:12;;;;;;;17.77;11.13;;;14.60;98.00;;;;;;5093442;28;20041;-68
2021/09/05 01:47:38;;;;;;;16.00;10.93;;;14.50;99.00;;;;;;5093301;28;20032;-66
2021/09/05 01:50:04;;;;;;;13.32;10.07;;;14.50;99.40;;;;;;5093340;28;20028;-66
2021/09/05 01:52:30;;;;;;;16.70;10.27;;;14.50;99.60;;;;;;5093210;28;20534;-67
2021/09/05 01:54:56;;;;;;;18.33;10.52;;;14.50;99.30;;;;;;5075091;28;20036;-68
2021/09/05 01:57:22;;;;;;;15.48;9.38;;;14.40;99.90;;;;;;5093171;28;20028;-68
2021/09/05 01:59:48;;;;;;;19.27;9.10;;;14.30;99.70;;;;;;5093273;28;20546;-68
2021/09/05 02:02:13;;;;;;;15.38;9.32;;;14.20;99.70;;;;;;5074760;28;20089;-67
2021/09/05 02:04:39;;;;;;;15.45;9.05;;;14.20;99.90;;;;;;5093428;28;20028;-68
2021/09/05 02:07:05;;;;;;;13.68;9.10;;;14.10;99.90;;;;;;5093173;28;20035;-70
2021/09/05 02:09:31;;;;;;;18.08;9.85;;;14.00;99.90;;;;;;5093116;28;20020;-66
2021/09/05 02:11:57;;;;;;;15.93;9.27;;;13.90;99.90;;;;;;5093179;28;20028;-67
2021/09/05 02:14:22;;;;;;;14.40;9.15;;;13.80;99.90;;;;;;5093068;28;20032;-67
2021/09/05 02:16:48;;;;;;;14.43;9.77;;;13.90;99.90;;;;;;5074842;28;20032;-69
2021/09/05 02:19:14;;;;;;;14.75;9.00;;;13.90;99.90;;;;;;5093009;28;20024;-70
2021/09/05 02:21:40;;;;;;;17.63;9.38;;;13.70;99.90;;;;;;5074935;28;20036;-69
2021/09/05 02:24:06;;;;;;;14.80;8.85;;;13.70;99.90;;;;;;5092995;28;20098;-67
2021/09/05 02:26:31;;;;;;;18.98;9.65;;;13.70;99.90;;;;;;5092938;28;20107;-68
2021/09/05 02:28:57;;;;;;;18.90;10.45;;;13.60;99.90;;;;;;5093202;28;20074;-69
2021/09/05 02:31:23;;;;;;;12.60;9.55;;;13.70;99.90;;;;;;5092940;28;20063;-68
2021/09/05 02:33:49;;;;;;;14.18;9.23;;;13.60;99.90;;;;;;5092929;28;20028;-68
2021/09/05 02:36:18;;;;;;;20.13;9.10;;;13.60;99.90;;;;;;5092831;28;20028;-68
2021/09/05 02:38:44;;;;;;;16.80;10.20;;;13.60;99.90;;;;;;5092800;28;20027;-67
2021/09/05 02:41:10;;;;;;;16.90;9.82;;;13.60;99.90;;;;;;5092553;28;20028;-69
2021/09/05 02:43:35;;;;;;;14.20;9.38;;;13.60;99.90;;;;;;5092779;28;20043;-68
2021/09/05 02:46:01;;;;;;;17.83;9.23;;;13.60;99.90;;;;;;5092823;28;20381;-68
2021/09/05 02:48:27;;;;;;;20.80;9.43;;;13.50;99.90;;;;;;5092757;28;20028;-68
2021/09/05 02:50:53;;;;;;;14.20;9.63;;;13.50;99.90;;;;;;5092776;28;20020;-68
2021/09/05 02:53:19;;;;;;;16.20;9.18;;;13.40;99.90;;;;;;5074532;28;20038;-69
2021/09/05 02:55:44;;;;;;;18.80;10.60;;;13.40;99.90;;;;;;5096604;28;20032;-68
2021/09/05 02:58:11;;;;;;;19.77;9.88;;;13.40;99.90;;;;;;5096493;28;20024;-68
2021/09/05 03:00:36;;;;;;;16.80;9.55;;;13.40;99.90;;;;;;5096189;28;20422;-68
2021/09/05 03:03:05;;;;;;;14.70;9.57;;;13.40;99.90;;;;;;5096448;28;20036;-67
2021/09/05 03:05:31;;;;;;;15.50;9.13;;;13.20;99.90;;;;;;5096351;28;20017;-68
2021/09/05 03:07:57;;;;;;;16.25;9.75;;;13.20;99.90;;;;;;5096367;28;20419;-69
2021/09/05 03:10:23;;;;;;;14.25;9.00;;;13.20;99.90;;;;;;5096546;28;20074;-69
2021/09/05 03:12:48;;;;;;;16.00;9.30;;;13.20;99.90;;;;;;5096244;28;20055;-68
2021/09/05 03:15:14;;;;;;;16.27;8.65;;;13.20;99.90;;;;;;5077946;28;20028;-69
2021/09/05 03:17:40;;;;;;;14.68;10.20;;;13.20;99.90;;;;;;5077780;28;20024;-70
2021/09/05 03:20:07;;;;;;;19.92;10.07;;;13.20;99.90;;;;;;5096159;28;20137;-68
2021/09/05 03:22:35;;;;;;;17.27;9.60;;;13.20;99.90;;;;;;5095756;28;20020;-69
2021/09/05 03:25:01;;;;;;;15.68;9.35;;;13.20;99.90;;;;;;5095970;28;20537;-66
2021/09/05 03:27:27;;;;;;;17.48;10.23;;;13.20;99.90;;;;;;5077723;28;20354;-70
2021/09/05 03:29:53;;;;;;;18.17;10.07;;;13.20;99.90;;;;;;5095872;28;20035;-69
2021/09/05 03:32:18;;;;;;;18.08;8.93;;;13.20;99.90;;;;;;5077891;28;20028;-69
2021/09/05 03:34:44;;;;;;;13.48;9.55;;;13.20;99.90;;;;;;5095751;28;20025;-67
2021/09/05 03:37:10;;;;;;;15.18;9.25;;;13.20;99.90;;;;;;5095808;28;20419;-67
2021/09/05 03:39:36;;;;;;;15.57;9.20;;;13.10;99.90;;;;;;5077493;28;20032;-68
2021/09/05 03:42:02;;;;;;;15.20;9.88;;;13.20;99.90;;;;;;5095679;28;20077;-67
2021/09/05 03:44:28;;;;;;;16.58;9.98;;;13.10;99.90;;;;;;5077385;28;20028;-68
2021/09/05 03:46:54;;;;;;;19.52;10.88;;;13.10;99.90;;;;;;5077318;28;20032;-68
2021/09/05 03:49:20;;;;;;;16.98;10.93;;;13.10;99.90;;;;;;5077275;28;20119;-68
2021/09/05 03:51:46;;;;;;;19.55;11.88;;;13.10;99.90;;;;;;5095566;28;20025;-68
2021/09/05 03:54:11;;;;;;;16.58;11.68;;;13.10;99.90;;;;;;5095344;28;20032;-67
2021/09/05 03:56:37;;;;;;;22.08;11.75;;;13.10;99.90;;;;;;5095196;28;20480;-67
2021/09/05 03:59:03;;;;;;;18.05;10.98;;;13.10;99.90;;;;;;5076848;28;20026;-69
2021/09/05 04:01:31;;;;;;;16.98;11.38;;;13.10;99.90;;;;;;5063930;28;20445;-66
2021/09/05 04:03:56;;;;;;;15.30;9.98;;;13.10;99.90;;;;;;5053598;28;20382;-67
2021/09/05 04:06:24;;;;;;;19.58;9.98;;;13.20;99.90;;;;;;5054252;28;20075;-67
2021/09/05 04:08:51;;;;;;;19.15;11.68;;;13.30;99.90;;;;;;5054908;28;20052;-67
2021/09/05 04:11:17;;;;;;;21.13;11.18;;;13.30;99.90;;;;;;5054908;28;20458;-66
2021/09/05 04:13:43;;;;;;;22.08;12.45;;;13.30;99.90;;;;;;5054767;28;20037;-69
2021/09/05 04:16:09;;;;;;;17.95;10.65;;;13.30;99.90;;;;;;5054780;28;20025;-68
2021/09/05 04:18:35;;;;;;;15.00;10.60;;;13.40;99.90;;;;;;5054761;28;20031;-66
2021/09/05 04:21:01;;;;;;;16.23;10.65;;;13.40;99.90;;;;;;5054718;28;20424;-68
2021/09/05 04:23:27;;;;;;;23.95;12.30;;;13.30;99.90;;;;;;5053313;28;20033;-67
2021/09/05 04:25:52;;;;;;;22.83;12.13;;;13.40;99.90;;;;;;5054762;28;20029;-67
2021/09/05 04:28:18;;;;;;;20.60;11.43;;;13.40;99.90;;;;;;5053170;28;20469;-68
2021/09/05 04:30:44;;;;;;;24.05;12.00;;;13.40;99.90;;;;;;5053226;28;20037;-68
2021/09/05 04:33:11;;;;;;;22.58;11.77;;;13.40;99.90;;;;;;5054397;28;20079;-69
2021/09/05 04:35:36;;;;;;;22.52;12.18;;;13.50;99.90;;;;;;5054376;28;20083;-68
2021/09/05 04:38:02;;;;;;;16.83;11.23;;;13.60;99.90;;;;;;5054322;28;20029;-67
2021/09/05 04:40:28;;;;;;;17.77;11.05;;;13.60;99.90;;;;;;5054296;28;20228;-68
2021/09/05 04:42:54;;;;;;;19.80;11.75;;;13.70;99.90;;;;;;5052908;28;20501;-68
2021/09/05 04:45:20;;;;;;;22.25;11.77;;;13.70;99.90;;;;;;5052564;28;20136;-69
2021/09/05 04:47:46;;;;;;;25.33;12.02;;;13.70;99.90;;;;;;5054428;28;20036;-69
2021/09/05 04:50:12;;;;;;;27.55;13.07;;;13.70;99.90;;;;;;5052807;28;20025;-68
2021/09/05 04:52:37;;;;;;;27.15;14.30;;;13.70;99.90;;;;;;5054022;28;20021;-68
2021/09/05 04:55:04;;;;;;;23.15;12.75;;;13.70;99.90;;;;;;5054008;28;20454;-67
2021/09/05 04:57:30;;;;;;;23.90;12.55;;;13.80;99.90;;;;;;5052631;28;20025;-68
2021/09/05 04:59:55;;;;;;;28.77;14.32;;;13.90;99.90;;;;;;5052511;28;20025;-68
2021/09/05 05:02:21;;;;;;;36.25;20.45;;;13.90;99.90;;;;;;5087346;28;20044;-68
2021/09/05 05:04:47;;;;;;;36.25;23.58;;;13.90;99.90;;;;;;5093947;28;20491;-68
2021/09/05 05:07:13;;;;;;;37.13;22.73;;;13.90;99.90;;;;;;5093702;28;20527;-68
2021/09/05 05:09:43;;;;;;;37.90;22.15;;;13.90;99.90;;;;;;5093951;28;20032;-67
2021/09/05 05:12:11;;;;;;;31.55;20.90;;;13.90;99.90;;;;;;5093989;28;20043;-66
2021/09/05 05:14:37;;;;;;;32.78;19.85;;;13.90;99.90;;;;;;5093842;28;20036;-67
2021/09/05 05:17:03;;;;;;;33.17;18.63;;;13.90;99.90;;;;;;5074790;28;20020;-67
2021/09/05 05:19:29;;;;;;;29.35;17.17;;;14.00;99.90;;;;;;5094055;28;20074;-66
2021/09/05 05:21:55;;;;;;;29.27;17.65;;;14.00;99.90;;;;;;5093829;28;20039;-68
2021/09/05 05:24:20;;;;;;;28.75;15.93;;;14.10;99.90;;;;;;5093457;28;20114;-67
2021/09/05 05:26:46;;;;;;;32.80;16.60;;;14.00;99.90;;;;;;5093355;28;20020;-68
2021/09/05 05:29:12;;;;;;;29.13;17.92;;;14.10;99.90;;;;;;5093610;28;20024;-66
2021/09/05 05:31:38;;;;;;;40.67;20.17;;;14.10;99.90;;;;;;5093641;28;20024;-66
2021/09/05 05:34:04;;;;;;;38.30;18.85;;;14.20;99.90;;;;;;5093539;28;20081;-67
2021/09/05 05:36:29;;;;;;;36.25;20.65;;;14.20;99.90;;;;;;5075278;28;20337;-67
2021/09/05 05:38:55;;;;;;;39.55;21.60;;;14.30;99.90;;;;;;5093515;28;20047;-67
2021/09/05 05:41:21;;;;;;;38.17;21.13;;;14.40;99.90;;;;;;5093195;28;20020;-68
2021/09/05 05:43:47;;;;;;;33.95;20.48;;;14.50;99.90;;;;;;5093436;28;20042;-67
2021/09/05 05:46:13;;;;;;;30.58;20.35;;;14.60;99.90;;;;;;5093376;28;20153;-67
2021/09/05 05:48:39;;;;;;;42.20;22.40;;;14.70;99.90;;;;;;5075134;28;20066;-66
2021/09/05 05:51:04;;;;;;;32.30;20.58;;;14.60;99.90;;;;;;5075162;28;20024;-67
2021/09/05 05:53:30;;;;;;;34.28;20.38;;;14.70;99.90;;;;;;5092942;28;20036;-69
2021/09/05 05:55:57;;;;;;;37.55;20.63;;;14.90;99.90;;;;;;5093281;28;20028;-68
2021/09/05 05:58:22;;;;;;;35.47;19.75;;;15.00;99.90;;;;;;5093247;28;20020;-67
2021/09/05 06:00:49;;;;;;;25.88;17.15;;;15.10;99.90;;;;;;5092716;28;20507;-68
2021/09/05 06:03:14;;;;;;;29.42;15.30;;;15.20;99.90;;;;;;5093183;28;20094;-67
2021/09/05 06:05:40;;;;;;;27.25;16.33;;;15.20;99.90;;;;;;5092841;28;20031;-67
2021/09/05 06:08:06;;;;;;;26.20;15.80;;;15.30;99.90;;;;;;5093214;28;20058;-68
2021/09/05 06:10:32;;;;;;;29.10;17.70;;;15.30;99.90;;;;;;5093121;28;20388;-66
2021/09/05 06:12:58;;;;;;;32.95;17.52;;;15.40;99.90;;;;;;5092795;28;20036;-69
2021/09/05 06:15:24;;;;;;;25.35;15.48;;;15.50;99.90;;;;;;5083304;28;20065;-66
2021/09/05 06:17:50;;;;;;;25.00;15.07;;;15.40;99.90;;;;;;5074854;28;20035;-65
2021/09/05 06:20:17;;;;;;;24.45;13.80;;;15.50;99.90;;;;;;5093061;28;20032;-69
2021/09/05 06:22:43;;;;;;;22.65;13.75;;;;;;;;;;5093379;28;20425;-69
2021/09/05 06:25:09;;;;;;;25.25;15.27;;;;;;;;;;5092686;28;20099;-68
2021/09/05 06:27:35;;;;;;;24.50;16.30;;;;;;;;;;5093547;28;20047;-67
2021/09/05 06:30:01;;;;;;;26.58;15.88;;;15.50;99.90;;;;;;5097059;28;20020;-68
2021/09/05 06:32:27;;;;;;;25.25;16.33;;;15.90;99.90;;;;;;5096982;28;20088;-65
2021/09/05 06:34:54;;;;;;;28.80;16.10;;;16.00;99.90;;;;;;5096976;28;20389;-67
2021/09/05 06:37:19;;;;;;;27.77;15.55;;;16.00;99.90;;;;;;5097152;28;20051;-70
2021/09/05 06:39:45;;;;;;;27.98;16.85;;;16.20;99.90;;;;;;5078299;28;20052;-67
2021/09/05 06:42:11;;;;;;;20.15;15.02;;;;;;;;;;5078587;28;20453;-68
2021/09/05 06:44:38;;;;;;;26.92;15.00;;;16.40;99.90;;;;;;5096774;28;20492;-68
2021/09/05 06:47:04;;;;;;;26.98;14.93;;;16.50;99.90;;;;;;5096446;28;20438;-68
2021/09/05 06:49:30;;;;;;;27.63;15.75;;;16.60;99.90;;;;;;5091317;28;20020;-69
2021/09/05 06:51:56;;;;;;;28.27;14.60;;;16.70;99.90;;;;;;5059114;28;20077;-68
2021/09/05 06:54:22;;;;;;;27.30;14.68;;;16.80;99.90;;;;;;5090942;28;20115;-66
2021/09/05 06:56:47;;;;;;;18.88;9.88;;;16.90;99.90;;;;;;5078395;28;20024;-70
2021/09/05 06:59:15;;;;;;;16.67;10.40;;;17.10;99.90;;;;;;5078237;28;20491;-67
2021/09/05 07:01:41;;;;;;;17.92;9.82;;;17.10;99.90;;;;;;5095879;28;20066;-69
2021/09/05 07:04:07;;;;;;;13.35;8.73;;;17.20;99.90;;;;;;5084043;28;20111;-70
2021/09/05 07:06:33;;;;;;;15.73;9.07;;;17.30;99.90;;;;;;5076088;28;20503;-67
2021/09/05 07:08:58;;;;;;;15.82;8.52;;;17.50;99.90;;;;;;5076044;28;20025;-69
2021/09/05 07:11:25;;;;;;;15.98;8.77;;;17.60;99.90;;;;;;5075994;28;20029;-68
2021/09/05 07:13:50;;;;;;;13.85;8.40;;;17.70;99.90;;;;;;5075917;28;20032;-67
2021/09/05 07:16:16;;;;;;;14.15;8.10;;;17.90;98.00;;;;;;5075620;28;20081;-68
2021/09/05 07:18:42;;;;;;;15.30;8.50;;;18.00;97.60;;;;;;5076147;28;20060;-68
2021/09/05 07:21:08;;;;;;;11.07;8.77;;;18.10;98.60;;;;;;5076038;28;20033;-68
2021/09/05 07:23:34;;;;;;;18.85;8.73;;;18.30;97.90;;;;;;5075832;28;20043;-68
2021/09/05 07:26:02;;;;;;;13.00;8.38;;;18.40;96.20;;;;;;5075739;28;20103;-68
2021/09/05 07:28:32;;;;;;;17.35;8.38;;;18.60;96.40;;;;;;5075683;28;20028;-68
2021/09/05 07:30:59;;;;;;;19.15;8.60;;;18.70;96.10;;;;;;5075608;28;20082;-69
2021/09/05 07:33:25;;;;;;;13.35;8.02;;;18.80;95.50;;;;;;5075568;28;20033;-70
2021/09/05 07:35:51;;;;;;;14.75;8.13;;;18.90;95.20;;;;;;5057263;28;20029;-69
2021/09/05 07:38:16;;;;;;;13.15;7.80;;;19.20;95.00;;;;;;5074246;28;20020;-68
2021/09/05 07:40:42;;;;;;;12.18;7.90;;;19.40;93.80;;;;;;5073395;28;20028;-69
2021/09/05 07:43:12;;;;;;;13.75;9.55;;;19.50;92.20;;;;;;5074925;28;20120;-69
2021/09/05 07:45:38;;;;;;;18.80;11.50;;;19.70;92.90;;;;;;5057264;28;20402;-69
2021/09/05 07:48:05;;;;;;;11.85;8.07;;;19.80;92.10;;;;;;5057304;28;20077;-69
2021/09/05 07:50:31;;;;;;;13.80;7.32;;;;;;;;;;5057222;28;20079;-69
2021/09/05 07:52:57;;;;;;;10.50;6.97;;;20.10;87.40;;;;;;5057240;28;20040;-68
2021/09/05 07:55:22;;;;;;;9.18;6.63;;;20.30;89.50;;;;;;5075156;28;20085;-69
2021/09/05 07:57:48;;;;;;;12.30;7.97;;;20.50;88.30;;;;;;5074833;28;20033;-68
2021/09/05 08:00:15;;;;;;;19.45;7.40;;;20.70;89.00;;;;;;5075134;28;20484;-69
2021/09/05 08:02:41;;;;;;;9.73;6.93;;;20.90;85.90;;;;;;5053218;28;20053;-69
2021/09/05 08:05:10;;;;;;;15.25;6.75;;;21.00;84.80;;;;;;5055052;28;20033;-68
2021/09/05 08:07:36;;;;;;;12.13;6.05;;;21.10;85.70;;;;;;5053636;28;20021;-69
2021/09/05 08:10:06;;;;;;;11.27;6.60;;;21.30;84.20;;;;;;5053643;28;20021;-70
2021/09/05 08:12:32;;;;;;;10.43;6.18;;;21.60;86.10;;;;;;5054883;28;20036;-70
2021/09/05 08:14:58;;;;;;;11.20;5.60;;;21.80;84.70;;;;;;5054830;28;20029;-70
2021/09/05 08:17:23;;;;;;;10.05;5.95;;;21.90;82.70;;;;;;5053457;28;20381;-70
2021/09/05 08:19:50;;;;;;;7.47;5.30;;;22.10;77.90;;;;;;5053415;28;20036;-69
2021/09/05 08:22:19;;;;;;;7.10;5.35;;;22.20;77.70;;;;;;5054298;28;20373;-68
2021/09/05 08:24:45;;;;;;;10.57;5.15;;;22.20;77.40;;;;;;5053546;28;20087;-69
2021/09/05 08:27:12;;;;;;;6.78;4.88;;;;;;;;;;5052364;28;20060;-70
2021/09/05 08:29:38;;;;;;;9.05;5.55;;;;;;;;;;5054553;28;20021;-71
2021/09/05 08:32:04;;;;;;;9.77;4.20;;;22.40;75.80;;;;;;5054457;28;20429;-69
2021/09/05 08:34:34;;;;;;;6.53;4.55;;;22.80;77.30;;;;;;5054640;28;20037;-69
2021/09/05 08:37:01;;;;;;;4.97;4.07;;;22.90;78.80;;;;;;5054423;28;20385;-69
2021/09/05 08:39:27;;;;;;;6.97;4.50;;;23.00;74.50;;;;;;5054323;28;20527;-70
2021/09/05 08:41:57;;;;;;;5.43;4.28;;;23.10;72.70;;;;;;5054257;28;20033;-72
2021/09/05 08:44:24;;;;;;;8.55;4.95;;;;;;;;;;5054585;28;20083;-71
2021/09/05 08:46:52;;;;;;;6.93;3.97;;;23.20;77.00;;;;;;5052890;28;20025;-72
2021/09/05 08:49:24;;;;;;;7.05;4.28;;;23.40;75.60;;;;;;5052820;28;20021;-70
2021/09/05 08:51:50;;;;;;;11.02;4.57;;;23.60;73.50;;;;;;5052782;28;20386;-70
2021/09/05 08:54:16;;;;;;;6.75;4.53;;;;;;;;;;5054182;28;20040;-71
2021/09/05 08:56:42;;;;;;;5.35;4.18;;;;;;;;;;5052623;28;20025;-71
2021/09/05 08:59:08;;;;;;;7.43;4.60;;;23.80;72.40;;;;;;5053750;28;20028;-72
2021/09/05 09:01:34;;;;;;;4.85;3.90;;;;;;;;;;5052309;28;20048;-71
2021/09/05 09:04:10;;;;;;;8.27;3.90;;;24.20;73.70;;;;;;5053582;28;20036;-71
2021/09/05 09:06:40;;;;;;;6.50;3.72;;;24.60;70.00;;;;;;5053874;28;20029;-71
2021/09/05 09:09:07;;;;;;;5.35;3.25;;;24.80;69.50;;;;;;5053842;28;20339;-71
2021/09/05 09:11:55;;;;;;;5.50;3.30;;;25.00;68.60;;;;;;5053787;28;20033;-72
2021/09/05 09:14:40;;;;;;;4.40;3.05;;;25.10;66.80;;;;;;5053496;28;20501;-68
2021/09/05 09:17:08;;;;;;;5.68;3.08;;;25.40;67.80;;;;;;5053729;28;20446;-66
2021/09/05 09:19:35;;;;;;;6.72;3.08;;;25.50;65.90;;;;;;5053583;28;20065;-66
2021/09/05 09:22:04;;;;;;;4.72;2.80;;;25.70;64.60;;;;;;5053622;28;20154;-67
2021/09/05 09:24:40;;;;;;;8.50;3.25;;;26.10;64.80;;;;;;5052322;28;20123;-66
2021/09/05 09:27:06;;;;;;;4.13;2.92;;;26.30;62.90;;;;;;5053552;28;20454;-65
2021/09/05 09:29:38;;;;;;;5.05;2.92;;;26.70;60.00;;;;;;5050393;28;20355;-68
2021/09/05 09:32:17;;;;;;;5.60;2.50;;;26.70;60.50;;;;;;5051836;28;20056;-69
2021/09/05 09:34:48;;;;;;;7.75;2.97;;;26.90;59.50;;;;;;5053188;28;20095;-67
2021/09/05 09:37:20;;;;;;;4.75;2.88;;;26.90;59.70;;;;;;5051951;28;20025;-69
2021/09/05 09:39:51;;;;;;;4.00;2.70;;;27.00;61.60;;;;;;5051816;28;20037;-69
2021/09/05 09:42:49;;;;;;;3.90;3.30;;;27.00;61.20;;;;;;5052889;28;20025;-68
2021/09/05 09:45:17;;;;;;;3.00;2.80;;;27.10;61.60;;;;;;4991331;28;20394;-68
2021/09/05 09:47:45;;;;;;;6.68;3.55;;;27.20;61.60;;;;;;4991424;28;20038;-68
2021/09/05 09:50:13;;;;;;;4.50;3.58;;;27.20;60.00;;;;;;4991366;28;20030;-68
2021/09/05 09:52:39;;;;;;;7.85;3.15;;;27.40;62.60;;;;;;4974992;28;20065;-69
2021/09/05 09:55:05;;;;;;;3.47;3.00;;;27.40;60.00;;;;;;4974853;28;20507;-68
2021/09/05 09:57:31;;;;;;;7.72;3.63;;;27.60;61.10;;;;;;4991289;28;20030;-68
2021/09/05 09:59:57;;;;;;;15.18;3.60;;;27.90;60.10;;;;;;4991402;28;20081;-68
2021/09/05 10:02:27;;;;;;;6.55;3.53;;;28.00;60.20;;;;;;4990480;28;20117;-68
2021/09/05 10:04:54;;;;;;;10.32;4.18;;;28.10;68.60;;;;;;4991246;28;20030;-68
2021/09/05 10:07:23;;;;;;;5.13;3.63;;;28.20;67.00;;;;;;4990966;28;20463;-73
2021/09/05 10:09:51;;;;;;;13.18;4.20;;;28.40;58.30;;;;;;4991106;28;20027;-69
2021/09/05 10:12:18;;;;;;;4.57;3.67;;;28.60;60.00;;;;;;4989105;28;20483;-70
2021/09/05 10:14:53;;;;;;;4.43;3.58;;;28.60;58.20;;;;;;4990940;28;20049;-70
2021/09/05 10:17:22;;;;;;;4.68;3.58;;;28.60;61.30;;;;;;4991029;28;20033;-69
2021/09/05 10:19:50;;;;;;;6.50;3.95;;;28.80;58.70;;;;;;4995645;28;20030;-70
2021/09/05 10:22:18;;;;;;;4.55;3.60;;;28.90;57.30;;;;;;5052606;28;20025;-70
2021/09/05 10:24:49;;;;;;;12.43;4.10;;;29.10;57.50;;;;;;5052658;28;20115;-70
2021/09/05 10:27:15;;;;;;;4.90;3.85;;;30.10;54.50;;;;;;5052341;28;20440;-70
2021/09/05 10:30:09;;;;;;;9.45;4.05;;;30.30;55.30;;;;;;5051997;28;20041;-70
2021/09/05 10:32:53;;;;;;;6.60;3.95;;;30.40;56.00;;;;;;5048253;28;20119;-70
2021/09/05 10:35:38;;;;;;;5.47;3.83;;;30.40;55.60;;;;;;5048939;28;20144;-72
2021/09/05 10:38:10;;;;;;;7.78;3.88;;;30.80;56.70;;;;;;5052444;28;20017;-72
2021/09/05 10:40:47;;;;;;;5.70;3.97;;;30.80;53.80;;;;;;5052475;28;20033;-72
2021/09/05 10:43:13;;;;;;;8.05;4.40;;;29.90;54.90;;;;;;5052584;28;20029;-72
2021/09/05 10:45:41;;;;;;;7.70;4.25;;;29.40;55.50;;;;;;5052474;28;20039;-71
2021/09/05 10:48:34;;;;;;;7.55;4.18;;;28.90;57.90;;;;;;5052600;28;20025;-72
2021/09/05 10:51:07;;;;;;;10.63;4.30;;;30.70;55.50;;;;;;5034843;28;20386;-72
2021/09/05 10:53:56;;;;;;;8.95;4.32;;;32.40;54.60;;;;;;5047297;28;20367;-73
2021/09/05 10:56:35;;;;;;;6.70;3.80;;;33.30;52.30;;;;;;5052430;28;20105;-74
2021/09/05 10:59:11;;;;;;;8.80;4.07;;;34.80;48.10;;;;;;5051130;28;20029;-72
2021/09/05 11:01:40;;;;;;;8.15;3.85;;;36.00;48.20;;;;;;5068734;28;20396;-74
2021/09/05 11:04:12;;;;;;;7.72;4.05;;;36.30;45.20;;;;;;5092577;28;20042;-73
2021/09/05 11:06:43;;;;;;;6.68;3.88;;;37.30;45.00;;;;;;5092465;28;20016;-74
2021/09/05 11:09:18;;;;;;;3.85;3.45;;;36.70;44.20;;;;;;5092305;28;20417;-75
2021/09/05 11:12:23;;;;;;;4.97;3.33;;;36.60;44.00;;;;;;5074203;28;20085;-72
2021/09/05 11:14:50;;;;;;;5.57;3.55;;;37.30;43.90;;;;;;5068031;28;20037;-73
2021/09/05 11:17:19;;;;;;;4.15;3.58;;;38.60;43.20;;;;;;5057555;28;20028;-72
2021/09/05 11:19:58;;;;;;;3.63;3.13;;;39.10;42.10;;;;;;5075835;28;20091;-73
2021/09/05 11:22:47;;;;;;;5.13;2.97;;;39.80;40.60;;;;;;5057723;28;20028;-73
2021/09/05 11:25:20;;;;;;;5.55;3.00;;;;;;;;;;5075723;28;20128;-72
2021/09/05 11:27:55;;;;;;;4.72;2.95;;;40.00;40.50;;;;;;5057667;28;20036;-73
2021/09/05 11:30:23;;;;;;;6.07;3.00;;;40.20;38.70;;;;;;5057412;28;20043;-73
2021/09/05 11:32:55;;;;;;;6.05;3.45;;;41.00;39.40;;;;;;5057444;28;20052;-72
2021/09/05 11:35:21;;;;;;;4.57;3.28;;;38.60;40.40;;;;;;5075562;28;20048;-73
2021/09/05 11:37:47;;;;;;;3.60;3.30;;;37.00;41.50;;;;;;5057371;28;20056;-72
2021/09/05 11:40:16;;;;;;;7.38;3.40;;;35.40;43.20;;;;;;5075446;28;20477;-72
2021/09/05 11:42:45;;;;;;;3.22;2.67;;;34.40;45.30;;;;;;5075142;28;20032;-73
2021/09/05 11:45:11;;;;;;;2.83;2.63;;;33.50;45.70;;;;;;5057379;28;20027;-71
2021/09/05 11:47:39;;;;;;;5.10;2.65;;;35.70;43.70;;;;;;5057049;28;20021;-72
2021/09/05 11:50:05;;;;;;;4.90;2.72;;;37.70;42.00;;;;;;5075180;28;20021;-73
2021/09/05 11:52:34;;;;;;;6.97;2.75;;;39.20;41.00;;;;;;5056782;28;20036;-73
2021/09/05 11:55:08;;;;;;;4.63;3.03;;;39.30;40.30;;;;;;5075029;28;20046;-73
2021/09/05 11:57:36;;;;;;;4.72;2.25;;;40.40;39.50;;;;;;5074937;28;20025;-74
2021/09/05 12:00:06;;;;;;;5.13;3.08;;;41.60;38.40;;;;;;5074811;28;20373;-73
2021/09/05 12:02:37;;;;;;;3.03;2.60;;;41.70;38.20;;;;;;5074612;28;20435;-72
2021/09/05 12:05:04;;;;;;;;;;;41.90;37.70;;;;;;5057500;28;20060;-73
2021/09/05 12:07:35;;;;;;;4.40;3.00;;;39.30;38.50;;;;;;5074827;28;19908;-72
2021/09/05 12:10:12;;;;;;;5.03;3.00;;;37.10;41.80;;;;;;5056832;28;20025;-72
2021/09/05 12:12:42;;;;;;;3.63;3.13;;;35.10;43.40;;;;;;5056784;28;20032;-72
2021/09/05 12:15:29;;;;;;;4.80;2.88;;;33.40;45.80;;;;;;5074772;28;20033;-72
2021/09/05 12:17:55;;;;;;;4.18;2.90;;;32.30;47.00;;;;;;5055982;28;20473;-71
2021/09/05 12:20:25;;;;;;;10.88;3.28;;;31.80;49.10;;;;;;5073633;28;20111;-71
2021/09/05 12:22:55;;;;;;;6.57;3.65;;;32.70;48.90;;;;;;5056699;28;20032;-72
2021/09/05 12:25:47;;;;;;;4.28;3.10;;;32.50;48.00;;;;;;5056323;28;20102;-72
2021/09/05 12:28:28;;;;;;;5.50;2.63;;;32.00;48.00;;;;;;5069700;28;20047;-71
2021/09/05 12:30:59;;;;;;;6.07;3.22;;;33.00;47.30;;;;;;5073831;28;20055;-72
2021/09/05 12:33:27;;;;;;;6.30;3.10;;;35.70;45.60;;;;;;5074453;28;20040;-72
2021/09/05 12:36:15;;;;;;;4.05;2.72;;;37.00;43.90;;;;;;5055752;28;20036;-73
2021/09/05 12:38:42;;;;;;;4.45;3.00;;;38.30;40.80;;;;;;5073990;28;20491;-72
2021/09/05 12:41:12;;;;;;;5.72;3.20;;;40.20;40.50;;;;;;5074239;28;20037;-72
2021/09/05 12:43:45;;;;;;;8.30;3.22;;;41.60;38.30;;;;;;5075700;28;20039;-72